sensor_id;sensor_type;location;lat;lon;timestamp;pressure;altitude;pressure_sealevel;temperature;humidity
70198;BME280;57582;-34.876;138.628;2023-08-31T00:01:42;101899;;;15.02;66.18
70198;BME280;57582;-34.876;138.628;2023-08-31T00:04:42;101898;;;14.88;66.47
70198;BME280;57582;-34.876;138.628;2023-08-31T00:07:42;101893;;;14.82;66.57
70198;BME280;57582;-34.876;138.628;2023-08-31T00:10:43;101890;;;14.95;66.46
70198;BME280;57582;-34.876;138.628;2023-08-31T00:13:42;101891;;;15.10;66.38
70198;BME280;57582;-34.876;138.628;2023-08-31T00:16:42;101892;;;15.28;65.38
70198;BME280;57582;-34.876;138.628;2023-08-31T00:19:42;101894;;;15.37;65.09
70198;BME280;57582;-34.876;138.628;2023-08-31T00:22:43;101896;;;15.29;63.91
70198;BME280;57582;-34.876;138.628;2023-08-31T00:25:42;101896;;;15.13;64.19
70198;BME280;57582;-34.876;138.628;2023-08-31T00:28:42;101901;;;15.01;64.12
70198;BME280;57582;-34.876;138.628;2023-08-31T00:31:42;101906;;;15.09;65.04
70198;BME280;57582;-34.876;138.628;2023-08-31T00:34:43;101906;;;15.19;63.64
70198;BME280;57582;-34.876;138.628;2023-08-31T00:37:42;101896;;;15.29;63.72
70198;BME280;57582;-34.876;138.628;2023-08-31T00:40:43;101908;;;15.30;63.56
70198;BME280;57582;-34.876;138.628;2023-08-31T00:43:42;101904;;;15.24;63.68
70198;BME280;57582;-34.876;138.628;2023-08-31T00:46:43;101906;;;15.29;63.46
70198;BME280;57582;-34.876;138.628;2023-08-31T00:49:43;101906;;;15.30;63.25
70198;BME280;57582;-34.876;138.628;2023-08-31T00:52:42;101905;;;15.34;62.68
70198;BME280;57582;-34.876;138.628;2023-08-31T00:55:43;101905;;;15.51;62.76
70198;BME280;57582;-34.876;138.628;2023-08-31T00:58:43;101901;;;15.77;62.88
70198;BME280;57582;-34.876;138.628;2023-08-31T01:01:48;101897;;;15.85;60.98
70198;BME280;57582;-34.876;138.628;2023-08-31T01:10:48;101895;;;15.71;60.66
70198;BME280;57582;-34.876;138.628;2023-08-31T01:13:44;101887;;;15.74;61.24
70198;BME280;57582;-34.876;138.628;2023-08-31T01:16:42;101879;;;15.90;61.17
70198;BME280;57582;-34.876;138.628;2023-08-31T01:19:50;101881;;;15.94;59.33
70198;BME280;57582;-34.876;138.628;2023-08-31T01:22:43;101881;;;15.94;59.14
70198;BME280;57582;-34.876;138.628;2023-08-31T01:25:42;101877;;;16.02;59.69
70198;BME280;57582;-34.876;138.628;2023-08-31T01:28:42;101878;;;16.09;59.52
70198;BME280;57582;-34.876;138.628;2023-08-31T01:31:42;101885;;;16.07;59.53
70198;BME280;57582;-34.876;138.628;2023-08-31T01:34:43;101876;;;16.08;59.55
70198;BME280;57582;-34.876;138.628;2023-08-31T01:37:47;101874;;;16.13;59.20
70198;BME280;57582;-34.876;138.628;2023-08-31T01:40:44;101882;;;16.13;59.22
70198;BME280;57582;-34.876;138.628;2023-08-31T01:43:42;101888;;;16.07;59.87
70198;BME280;57582;-34.876;138.628;2023-08-31T01:46:45;101892;;;16.08;60.11
70198;BME280;57582;-34.876;138.628;2023-08-31T01:49:42;101890;;;15.93;60.52
70198;BME280;57582;-34.876;138.628;2023-08-31T01:52:42;101883;;;15.95;60.82
70198;BME280;57582;-34.876;138.628;2023-08-31T01:55:42;101885;;;15.94;60.74
70198;BME280;57582;-34.876;138.628;2023-08-31T01:58:43;101885;;;16.07;60.37
70198;BME280;57582;-34.876;138.628;2023-08-31T02:01:42;101887;;;16.24;59.70
70198;BME280;57582;-34.876;138.628;2023-08-31T02:04:43;101879;;;16.29;58.48
70198;BME280;57582;-34.876;138.628;2023-08-31T02:07:42;101890;;;16.16;58.91
70198;BME280;57582;-34.876;138.628;2023-08-31T02:10:43;101887;;;16.08;59.27
70198;BME280;57582;-34.876;138.628;2023-08-31T02:13:42;101884;;;16.13;59.46
70198;BME280;57582;-34.876;138.628;2023-08-31T02:16:42;101887;;;16.21;59.32
70198;BME280;57582;-34.876;138.628;2023-08-31T02:19:42;101885;;;16.31;59.02
70198;BME280;57582;-34.876;138.628;2023-08-31T02:22:43;101881;;;16.30;59.10
70198;BME280;57582;-34.876;138.628;2023-08-31T02:25:42;101886;;;16.30;59.85
70198;BME280;57582;-34.876;138.628;2023-08-31T02:28:42;101880;;;16.23;60.29
70198;BME280;57582;-34.876;138.628;2023-08-31T02:31:42;101874;;;16.26;60.73
70198;BME280;57582;-34.876;138.628;2023-08-31T02:34:43;101868;;;16.24;61.46
70198;BME280;57582;-34.876;138.628;2023-08-31T02:37:42;101868;;;16.11;61.19
70198;BME280;57582;-34.876;138.628;2023-08-31T02:40:45;101865;;;15.99;60.60
70198;BME280;57582;-34.876;138.628;2023-08-31T02:43:42;101860;;;15.99;59.86
70198;BME280;57582;-34.876;138.628;2023-08-31T02:46:43;101854;;;15.99;59.63
70198;BME280;57582;-34.876;138.628;2023-08-31T02:49:42;101853;;;16.09;59.04
70198;BME280;57582;-34.876;138.628;2023-08-31T02:52:42;101856;;;16.04;59.15
70198;BME280;57582;-34.876;138.628;2023-08-31T02:55:42;101855;;;16.02;59.86
70198;BME280;57582;-34.876;138.628;2023-08-31T02:58:43;101858;;;16.00;60.02
70198;BME280;57582;-34.876;138.628;2023-08-31T03:01:42;101852;;;15.93;60.39
70198;BME280;57582;-34.876;138.628;2023-08-31T03:04:42;101847;;;15.90;60.46
70198;BME280;57582;-34.876;138.628;2023-08-31T03:07:42;101848;;;16.00;60.35
70198;BME280;57582;-34.876;138.628;2023-08-31T03:10:43;101847;;;16.03;60.10
70198;BME280;57582;-34.876;138.628;2023-08-31T03:13:42;101851;;;16.19;59.62
70198;BME280;57582;-34.876;138.628;2023-08-31T03:16:42;101842;;;16.39;59.44
70198;BME280;57582;-34.876;138.628;2023-08-31T03:19:42;101847;;;16.45;58.88
70198;BME280;57582;-34.876;138.628;2023-08-31T03:22:43;101844;;;16.78;59.00
70198;BME280;57582;-34.876;138.628;2023-08-31T03:25:42;101839;;;17.13;57.26
70198;BME280;57582;-34.876;138.628;2023-08-31T03:28:42;101834;;;17.15;56.00
70198;BME280;57582;-34.876;138.628;2023-08-31T03:31:42;101838;;;16.92;56.92
70198;BME280;57582;-34.876;138.628;2023-08-31T03:34:43;101839;;;16.94;56.99
70198;BME280;57582;-34.876;138.628;2023-08-31T03:37:42;101834;;;17.12;57.12
70198;BME280;57582;-34.876;138.628;2023-08-31T03:40:42;101825;;;17.39;56.17
70198;BME280;57582;-34.876;138.628;2023-08-31T03:43:42;101821;;;17.56;54.85
70198;BME280;57582;-34.876;138.628;2023-08-31T03:46:43;101827;;;17.44;54.96
70198;BME280;57582;-34.876;138.628;2023-08-31T03:49:42;101829;;;17.32;55.79
70198;BME280;57582;-34.876;138.628;2023-08-31T03:52:42;101828;;;17.10;55.73
70198;BME280;57582;-34.876;138.628;2023-08-31T03:55:42;101827;;;16.98;56.65
70198;BME280;57582;-34.876;138.628;2023-08-31T03:58:43;101830;;;17.03;56.23
70198;BME280;57582;-34.876;138.628;2023-08-31T04:01:42;101823;;;17.09;55.82
70198;BME280;57582;-34.876;138.628;2023-08-31T04:04:42;101822;;;17.25;56.02
70198;BME280;57582;-34.876;138.628;2023-08-31T04:07:43;101821;;;17.34;55.54
70198;BME280;57582;-34.876;138.628;2023-08-31T04:10:43;101822;;;17.36;54.69
70198;BME280;57582;-34.876;138.628;2023-08-31T04:13:42;101823;;;17.38;54.86
70198;BME280;57582;-34.876;138.628;2023-08-31T04:16:42;101824;;;17.39;54.98
70198;BME280;57582;-34.876;138.628;2023-08-31T04:19:42;101824;;;17.31;54.98
70198;BME280;57582;-34.876;138.628;2023-08-31T04:22:43;101824;;;17.11;55.48
70198;BME280;57582;-34.876;138.628;2023-08-31T04:25:42;101820;;;17.25;55.67
70198;BME280;57582;-34.876;138.628;2023-08-31T04:28:43;101817;;;17.44;55.31
70198;BME280;57582;-34.876;138.628;2023-08-31T04:31:42;101818;;;17.51;53.28
70198;BME280;57582;-34.876;138.628;2023-08-31T04:34:43;101817;;;17.38;54.06
70198;BME280;57582;-34.876;138.628;2023-08-31T04:37:42;101813;;;17.35;55.44
70198;BME280;57582;-34.876;138.628;2023-08-31T04:40:42;101809;;;17.30;54.84
70198;BME280;57582;-34.876;138.628;2023-08-31T04:43:42;101811;;;17.28;55.43
70198;BME280;57582;-34.876;138.628;2023-08-31T04:46:43;101808;;;17.39;55.85
70198;BME280;57582;-34.876;138.628;2023-08-31T04:49:43;101811;;;17.53;55.10
70198;BME280;57582;-34.876;138.628;2023-08-31T04:52:43;101814;;;17.64;55.11
70198;BME280;57582;-34.876;138.628;2023-08-31T04:55:43;101811;;;17.53;55.52
70198;BME280;57582;-34.876;138.628;2023-08-31T04:58:43;101812;;;17.59;55.27
70198;BME280;57582;-34.876;138.628;2023-08-31T05:01:43;101811;;;17.63;55.22
70198;BME280;57582;-34.876;138.628;2023-08-31T05:04:43;101805;;;17.82;55.01
70198;BME280;57582;-34.876;138.628;2023-08-31T05:07:43;101800;;;17.79;54.35
70198;BME280;57582;-34.876;138.628;2023-08-31T05:10:44;101799;;;17.80;54.06
70198;BME280;57582;-34.876;138.628;2023-08-31T05:13:43;101809;;;17.98;53.55
70198;BME280;57582;-34.876;138.628;2023-08-31T05:16:43;101802;;;17.97;53.56
70198;BME280;57582;-34.876;138.628;2023-08-31T05:19:43;101798;;;18.06;53.31
70198;BME280;57582;-34.876;138.628;2023-08-31T05:22:43;101799;;;18.21;53.09
70198;BME280;57582;-34.876;138.628;2023-08-31T05:25:43;101806;;;18.35;52.99
70198;BME280;57582;-34.876;138.628;2023-08-31T05:28:43;101800;;;18.44;52.45
70198;BME280;57582;-34.876;138.628;2023-08-31T05:31:43;101802;;;18.33;52.57
70198;BME280;57582;-34.876;138.628;2023-08-31T05:34:43;101796;;;18.23;53.03
70198;BME280;57582;-34.876;138.628;2023-08-31T05:37:43;101806;;;18.28;52.71
70198;BME280;57582;-34.876;138.628;2023-08-31T05:40:43;101798;;;18.32;52.57
70198;BME280;57582;-34.876;138.628;2023-08-31T05:43:43;101795;;;18.14;52.34
70198;BME280;57582;-34.876;138.628;2023-08-31T05:46:43;101799;;;18.18;53.15
70198;BME280;57582;-34.876;138.628;2023-08-31T05:49:43;101806;;;18.12;53.22
70198;BME280;57582;-34.876;138.628;2023-08-31T05:52:43;101801;;;17.93;52.93
70198;BME280;57582;-34.876;138.628;2023-08-31T05:55:43;101803;;;17.90;52.98
70198;BME280;57582;-34.876;138.628;2023-08-31T05:58:43;101804;;;17.98;52.77
70198;BME280;57582;-34.876;138.628;2023-08-31T06:01:43;101812;;;17.96;52.23
70198;BME280;57582;-34.876;138.628;2023-08-31T06:04:43;101809;;;17.88;52.81
70198;BME280;57582;-34.876;138.628;2023-08-31T06:07:43;101814;;;17.86;53.24
70198;BME280;57582;-34.876;138.628;2023-08-31T06:10:43;101808;;;17.92;52.99
70198;BME280;57582;-34.876;138.628;2023-08-31T06:13:43;101812;;;17.81;53.59
70198;BME280;57582;-34.876;138.628;2023-08-31T06:16:43;101816;;;17.76;53.51
70198;BME280;57582;-34.876;138.628;2023-08-31T06:19:43;101818;;;17.77;53.56
70198;BME280;57582;-34.876;138.628;2023-08-31T06:22:43;101809;;;17.68;54.01
70198;BME280;57582;-34.876;138.628;2023-08-31T06:25:43;101813;;;17.77;54.08
70198;BME280;57582;-34.876;138.628;2023-08-31T06:28:43;101819;;;17.78;53.88
70198;BME280;57582;-34.876;138.628;2023-08-31T06:31:43;101816;;;17.82;53.72
70198;BME280;57582;-34.876;138.628;2023-08-31T06:34:44;101813;;;17.74;53.66
70198;BME280;57582;-34.876;138.628;2023-08-31T06:37:43;101812;;;17.67;54.42
70198;BME280;57582;-34.876;138.628;2023-08-31T06:40:43;101816;;;17.76;54.36
70198;BME280;57582;-34.876;138.628;2023-08-31T06:43:43;101816;;;17.66;53.81
70198;BME280;57582;-34.876;138.628;2023-08-31T06:46:43;101814;;;17.59;54.35
70198;BME280;57582;-34.876;138.628;2023-08-31T06:49:43;101811;;;17.50;54.51
70198;BME280;57582;-34.876;138.628;2023-08-31T06:52:43;101809;;;17.39;54.92
70198;BME280;57582;-34.876;138.628;2023-08-31T06:55:43;101808;;;17.36;55.02
70198;BME280;57582;-34.876;138.628;2023-08-31T06:58:43;101807;;;17.37;55.14
70198;BME280;57582;-34.876;138.628;2023-08-31T07:01:43;101810;;;17.27;55.49
70198;BME280;57582;-34.876;138.628;2023-08-31T07:04:43;101824;;;17.06;56.04
70198;BME280;57582;-34.876;138.628;2023-08-31T07:07:43;101824;;;17.00;56.76
70198;BME280;57582;-34.876;138.628;2023-08-31T07:10:43;101815;;;16.98;57.43
70198;BME280;57582;-34.876;138.628;2023-08-31T07:13:43;101824;;;17.01;57.80
70198;BME280;57582;-34.876;138.628;2023-08-31T07:16:43;101832;;;17.01;57.51
70198;BME280;57582;-34.876;138.628;2023-08-31T07:19:43;101835;;;17.01;57.91
70198;BME280;57582;-34.876;138.628;2023-08-31T07:22:43;101828;;;16.99;57.93
70198;BME280;57582;-34.876;138.628;2023-08-31T07:25:43;101831;;;16.97;58.22
70198;BME280;57582;-34.876;138.628;2023-08-31T07:28:43;101830;;;16.95;58.58
70198;BME280;57582;-34.876;138.628;2023-08-31T07:31:43;101830;;;16.94;58.89
70198;BME280;57582;-34.876;138.628;2023-08-31T07:34:43;101827;;;16.76;59.31
70198;BME280;57582;-34.876;138.628;2023-08-31T07:37:43;101839;;;16.57;60.12
70198;BME280;57582;-34.876;138.628;2023-08-31T07:40:43;101840;;;16.46;60.70
70198;BME280;57582;-34.876;138.628;2023-08-31T07:43:43;101846;;;16.48;60.77
70198;BME280;57582;-34.876;138.628;2023-08-31T07:46:43;101854;;;16.43;60.30
70198;BME280;57582;-34.876;138.628;2023-08-31T07:49:43;101849;;;16.37;60.54
70198;BME280;57582;-34.876;138.628;2023-08-31T07:52:43;101869;;;16.20;60.92
70198;BME280;57582;-34.876;138.628;2023-08-31T07:55:50;101868;;;16.19;61.23
70198;BME280;57582;-34.876;138.628;2023-08-31T07:58:44;101868;;;16.13;61.83
70198;BME280;57582;-34.876;138.628;2023-08-31T08:01:43;101867;;;16.03;62.10
70198;BME280;57582;-34.876;138.628;2023-08-31T08:04:45;101869;;;16.04;61.94
70198;BME280;57582;-34.876;138.628;2023-08-31T08:07:43;101873;;;15.96;62.15
70198;BME280;57582;-34.876;138.628;2023-08-31T08:10:43;101875;;;16.00;62.04
70198;BME280;57582;-34.876;138.628;2023-08-31T08:13:43;101877;;;15.92;62.11
70198;BME280;57582;-34.876;138.628;2023-08-31T08:16:43;101891;;;15.94;62.17
70198;BME280;57582;-34.876;138.628;2023-08-31T08:19:43;101885;;;15.93;62.20
70198;BME280;57582;-34.876;138.628;2023-08-31T08:22:43;101888;;;15.91;62.28
70198;BME280;57582;-34.876;138.628;2023-08-31T08:25:43;101879;;;15.96;62.17
70198;BME280;57582;-34.876;138.628;2023-08-31T08:28:43;101888;;;16.00;62.15
70198;BME280;57582;-34.876;138.628;2023-08-31T08:31:43;101885;;;16.02;62.23
70198;BME280;57582;-34.876;138.628;2023-08-31T08:34:43;101890;;;16.02;62.49
70198;BME280;57582;-34.876;138.628;2023-08-31T08:37:43;101895;;;16.06;62.72
70198;BME280;57582;-34.876;138.628;2023-08-31T08:40:43;101897;;;16.06;63.11
70198;BME280;57582;-34.876;138.628;2023-08-31T08:43:43;101902;;;16.04;63.41
70198;BME280;57582;-34.876;138.628;2023-08-31T08:46:43;101896;;;15.98;63.84
70198;BME280;57582;-34.876;138.628;2023-08-31T08:49:44;101902;;;16.04;63.77
70198;BME280;57582;-34.876;138.628;2023-08-31T08:52:43;101909;;;16.02;64.12
70198;BME280;57582;-34.876;138.628;2023-08-31T08:55:43;101916;;;16.09;64.61
70198;BME280;57582;-34.876;138.628;2023-08-31T08:58:43;101917;;;16.00;65.39
70198;BME280;57582;-34.876;138.628;2023-08-31T09:01:43;101914;;;16.08;65.12
70198;BME280;57582;-34.876;138.628;2023-08-31T09:04:43;101918;;;16.17;64.49
70198;BME280;57582;-34.876;138.628;2023-08-31T09:10:44;101929;;;16.21;64.26
70198;BME280;57582;-34.876;138.628;2023-08-31T09:13:43;101936;;;16.13;64.27
70198;BME280;57582;-34.876;138.628;2023-08-31T09:16:47;101932;;;16.10;64.46
70198;BME280;57582;-34.876;138.628;2023-08-31T09:19:43;101946;;;16.17;64.64
70198;BME280;57582;-34.876;138.628;2023-08-31T09:22:43;101940;;;16.13;64.30
70198;BME280;57582;-34.876;138.628;2023-08-31T09:28:43;101943;;;16.25;63.93
70198;BME280;57582;-34.876;138.628;2023-08-31T09:31:43;101946;;;16.27;64.18
70198;BME280;57582;-34.876;138.628;2023-08-31T09:34:43;101943;;;16.28;64.48
70198;BME280;57582;-34.876;138.628;2023-08-31T09:37:45;101945;;;16.23;64.66
70198;BME280;57582;-34.876;138.628;2023-08-31T09:40:43;101941;;;16.30;64.81
70198;BME280;57582;-34.876;138.628;2023-08-31T09:43:43;101940;;;16.31;64.86
70198;BME280;57582;-34.876;138.628;2023-08-31T09:46:44;101936;;;16.35;64.68
70198;BME280;57582;-34.876;138.628;2023-08-31T09:49:43;101942;;;16.44;64.30
70198;BME280;57582;-34.876;138.628;2023-08-31T09:52:43;101942;;;16.52;64.08
70198;BME280;57582;-34.876;138.628;2023-08-31T09:55:43;101944;;;16.54;63.74
70198;BME280;57582;-34.876;138.628;2023-08-31T09:58:43;101945;;;16.53;63.73
70198;BME280;57582;-34.876;138.628;2023-08-31T10:01:44;101944;;;16.59;63.64
70198;BME280;57582;-34.876;138.628;2023-08-31T10:04:43;101944;;;16.65;63.48
70198;BME280;57582;-34.876;138.628;2023-08-31T10:07:43;101941;;;16.67;63.20
70198;BME280;57582;-34.876;138.628;2023-08-31T10:10:44;101943;;;16.64;62.88
70198;BME280;57582;-34.876;138.628;2023-08-31T10:13:43;101947;;;16.59;63.17
70198;BME280;57582;-34.876;138.628;2023-08-31T10:16:43;101939;;;16.56;63.40
70198;BME280;57582;-34.876;138.628;2023-08-31T10:19:43;101938;;;16.57;63.53
70198;BME280;57582;-34.876;138.628;2023-08-31T10:22:44;101944;;;16.58;63.73
70198;BME280;57582;-34.876;138.628;2023-08-31T10:28:43;101944;;;16.50;64.29
70198;BME280;57582;-34.876;138.628;2023-08-31T10:31:46;101943;;;16.47;64.52
70198;BME280;57582;-34.876;138.628;2023-08-31T10:34:44;101940;;;16.46;64.35
70198;BME280;57582;-34.876;138.628;2023-08-31T10:37:43;101946;;;16.46;64.29
70198;BME280;57582;-34.876;138.628;2023-08-31T10:40:59;101943;;;16.44;64.39
70198;BME280;57582;-34.876;138.628;2023-08-31T10:43:59;101937;;;16.47;64.35
70198;BME280;57582;-34.876;138.628;2023-08-31T10:46:44;101941;;;16.51;64.21
70198;BME280;57582;-34.876;138.628;2023-08-31T10:49:49;101937;;;16.52;63.92
70198;BME280;57582;-34.876;138.628;2023-08-31T10:52:43;101941;;;16.53;63.85
70198;BME280;57582;-34.876;138.628;2023-08-31T10:55:51;101942;;;16.50;63.69
70198;BME280;57582;-34.876;138.628;2023-08-31T10:59:00;101948;;;16.50;63.68
70198;BME280;57582;-34.876;138.628;2023-08-31T11:01:53;101947;;;16.51;63.59
70198;BME280;57582;-34.876;138.628;2023-08-31T11:07:45;101948;;;16.47;63.53
70198;BME280;57582;-34.876;138.628;2023-08-31T11:10:45;101950;;;16.48;63.45
70198;BME280;57582;-34.876;138.628;2023-08-31T11:13:43;101952;;;16.48;63.38
70198;BME280;57582;-34.876;138.628;2023-08-31T11:16:43;101959;;;16.46;63.94
70198;BME280;57582;-34.876;138.628;2023-08-31T11:19:43;101959;;;16.54;64.18
70198;BME280;57582;-34.876;138.628;2023-08-31T11:22:45;101969;;;16.66;63.92
70198;BME280;57582;-34.876;138.628;2023-08-31T11:25:43;101976;;;16.80;63.59
70198;BME280;57582;-34.876;138.628;2023-08-31T11:28:43;101972;;;17.08;63.22
70198;BME280;57582;-34.876;138.628;2023-08-31T11:31:43;101985;;;17.44;61.65
70198;BME280;57582;-34.876;138.628;2023-08-31T11:34:44;101988;;;17.73;60.47
70198;BME280;57582;-34.876;138.628;2023-08-31T11:37:43;101986;;;17.99;59.59
70198;BME280;57582;-34.876;138.628;2023-08-31T11:40:43;101987;;;18.13;58.74
70198;BME280;57582;-34.876;138.628;2023-08-31T11:43:43;101994;;;18.14;58.68
70198;BME280;57582;-34.876;138.628;2023-08-31T11:46:44;101996;;;18.25;58.24
70198;BME280;57582;-34.876;138.628;2023-08-31T11:49:43;102002;;;18.36;57.96
70198;BME280;57582;-34.876;138.628;2023-08-31T11:52:43;102000;;;18.35;57.17
70198;BME280;57582;-34.876;138.628;2023-08-31T11:55:51;101998;;;18.32;57.42
70198;BME280;57582;-34.876;138.628;2023-08-31T11:58:44;102000;;;18.21;57.74
70198;BME280;57582;-34.876;138.628;2023-08-31T12:01:45;102008;;;18.12;57.86
70198;BME280;57582;-34.876;138.628;2023-08-31T12:04:43;102013;;;18.07;58.16
70198;BME280;57582;-34.876;138.628;2023-08-31T12:07:43;102013;;;18.01;58.32
70198;BME280;57582;-34.876;138.628;2023-08-31T12:10:44;102018;;;17.93;58.59
70198;BME280;57582;-34.876;138.628;2023-08-31T12:13:43;102024;;;17.83;58.77
70198;BME280;57582;-34.876;138.628;2023-08-31T12:16:43;102027;;;17.75;59.25
70198;BME280;57582;-34.876;138.628;2023-08-31T12:19:43;102024;;;17.75;59.27
70198;BME280;57582;-34.876;138.628;2023-08-31T12:22:44;102030;;;17.67;59.00
70198;BME280;57582;-34.876;138.628;2023-08-31T12:25:51;102032;;;17.60;59.34
70198;BME280;57582;-34.876;138.628;2023-08-31T12:28:43;102024;;;17.54;59.54
70198;BME280;57582;-34.876;138.628;2023-08-31T12:31:43;102031;;;17.51;59.47
70198;BME280;57582;-34.876;138.628;2023-08-31T12:34:44;102029;;;17.44;59.42
70198;BME280;57582;-34.876;138.628;2023-08-31T12:37:43;102025;;;17.37;59.55
70198;BME280;57582;-34.876;138.628;2023-08-31T12:40:43;102024;;;17.28;59.51
70198;BME280;57582;-34.876;138.628;2023-08-31T12:43:43;102024;;;17.18;59.25
70198;BME280;57582;-34.876;138.628;2023-08-31T12:46:44;102024;;;17.07;59.64
70198;BME280;57582;-34.876;138.628;2023-08-31T12:49:43;102021;;;16.99;59.58
70198;BME280;57582;-34.876;138.628;2023-08-31T12:52:43;102027;;;16.88;59.45
70198;BME280;57582;-34.876;138.628;2023-08-31T12:55:43;102031;;;16.73;60.09
70198;BME280;57582;-34.876;138.628;2023-08-31T12:58:44;102037;;;16.61;60.77
70198;BME280;57582;-34.876;138.628;2023-08-31T13:01:43;102038;;;16.55;61.19
70198;BME280;57582;-34.876;138.628;2023-08-31T13:04:43;102035;;;16.57;61.15
70198;BME280;57582;-34.876;138.628;2023-08-31T13:07:43;102034;;;16.53;60.67
70198;BME280;57582;-34.876;138.628;2023-08-31T13:10:53;102038;;;16.49;60.69
70198;BME280;57582;-34.876;138.628;2023-08-31T13:13:43;102046;;;16.44;61.24
70198;BME280;57582;-34.876;138.628;2023-08-31T13:16:43;102044;;;16.43;61.83
70198;BME280;57582;-34.876;138.628;2023-08-31T13:19:43;102037;;;16.42;62.25
70198;BME280;57582;-34.876;138.628;2023-08-31T13:22:44;102038;;;16.36;62.73
70198;BME280;57582;-34.876;138.628;2023-08-31T13:25:43;102039;;;16.37;62.84
70198;BME280;57582;-34.876;138.628;2023-08-31T13:28:43;102043;;;16.33;63.25
70198;BME280;57582;-34.876;138.628;2023-08-31T13:31:43;102042;;;16.36;63.18
70198;BME280;57582;-34.876;138.628;2023-08-31T13:34:44;102043;;;16.33;63.14
70198;BME280;57582;-34.876;138.628;2023-08-31T13:37:43;102040;;;16.36;63.40
70198;BME280;57582;-34.876;138.628;2023-08-31T13:40:43;102043;;;16.38;63.11
70198;BME280;57582;-34.876;138.628;2023-08-31T13:43:43;102042;;;16.16;62.80
70198;BME280;57582;-34.876;138.628;2023-08-31T13:46:44;102038;;;16.22;62.72
70198;BME280;57582;-34.876;138.628;2023-08-31T13:49:43;102035;;;16.18;62.74
70198;BME280;57582;-34.876;138.628;2023-08-31T13:52:44;102029;;;16.08;62.15
70198;BME280;57582;-34.876;138.628;2023-08-31T13:55:44;102030;;;16.03;62.03
70198;BME280;57582;-34.876;138.628;2023-08-31T13:58:44;102028;;;15.98;62.18
70198;BME280;57582;-34.876;138.628;2023-08-31T14:01:43;102030;;;15.96;61.92
70198;BME280;57582;-34.876;138.628;2023-08-31T14:04:43;102035;;;15.89;61.86
70198;BME280;57582;-34.876;138.628;2023-08-31T14:07:43;102043;;;15.89;61.79
70198;BME280;57582;-34.876;138.628;2023-08-31T14:10:44;102031;;;15.87;61.50
70198;BME280;57582;-34.876;138.628;2023-08-31T14:13:43;102034;;;15.92;60.98
70198;BME280;57582;-34.876;138.628;2023-08-31T14:16:43;102035;;;15.89;60.63
70198;BME280;57582;-34.876;138.628;2023-08-31T14:19:43;102036;;;15.82;59.87
70198;BME280;57582;-34.876;138.628;2023-08-31T14:22:44;102033;;;15.78;60.37
70198;BME280;57582;-34.876;138.628;2023-08-31T14:25:43;102034;;;15.77;60.25
70198;BME280;57582;-34.876;138.628;2023-08-31T14:28:43;102024;;;15.73;60.21
70198;BME280;57582;-34.876;138.628;2023-08-31T14:31:43;102029;;;15.69;60.50
70198;BME280;57582;-34.876;138.628;2023-08-31T14:34:44;102028;;;15.62;60.50
70198;BME280;57582;-34.876;138.628;2023-08-31T14:37:43;102022;;;15.56;61.25
70198;BME280;57582;-34.876;138.628;2023-08-31T14:40:43;102025;;;15.56;61.11
70198;BME280;57582;-34.876;138.628;2023-08-31T14:43:43;102024;;;15.52;61.32
70198;BME280;57582;-34.876;138.628;2023-08-31T14:46:44;102029;;;15.44;61.49
70198;BME280;57582;-34.876;138.628;2023-08-31T14:49:43;102020;;;15.45;62.11
70198;BME280;57582;-34.876;138.628;2023-08-31T14:52:43;102018;;;15.44;61.88
70198;BME280;57582;-34.876;138.628;2023-08-31T14:55:51;102011;;;15.45;62.54
70198;BME280;57582;-34.876;138.628;2023-08-31T14:58:44;102018;;;15.50;62.35
70198;BME280;57582;-34.876;138.628;2023-08-31T15:04:43;102020;;;15.48;62.47
70198;BME280;57582;-34.876;138.628;2023-08-31T15:07:43;102021;;;15.44;62.67
70198;BME280;57582;-34.876;138.628;2023-08-31T15:10:44;102023;;;15.47;62.48
70198;BME280;57582;-34.876;138.628;2023-08-31T15:13:43;102022;;;15.42;62.27
70198;BME280;57582;-34.876;138.628;2023-08-31T15:16:43;102024;;;15.41;62.54
70198;BME280;57582;-34.876;138.628;2023-08-31T15:19:43;102024;;;15.43;62.58
70198;BME280;57582;-34.876;138.628;2023-08-31T15:22:44;102016;;;15.44;62.36
70198;BME280;57582;-34.876;138.628;2023-08-31T15:25:43;102018;;;15.49;62.55
70198;BME280;57582;-34.876;138.628;2023-08-31T15:28:43;102022;;;15.45;62.32
70198;BME280;57582;-34.876;138.628;2023-08-31T15:31:43;102022;;;15.41;62.53
70198;BME280;57582;-34.876;138.628;2023-08-31T15:34:45;102019;;;15.45;62.53
70198;BME280;57582;-34.876;138.628;2023-08-31T15:37:43;102020;;;15.47;62.65
70198;BME280;57582;-34.876;138.628;2023-08-31T15:40:47;102020;;;15.45;62.72
70198;BME280;57582;-34.876;138.628;2023-08-31T15:43:44;102019;;;15.43;62.70
70198;BME280;57582;-34.876;138.628;2023-08-31T15:46:44;102022;;;15.45;62.79
70198;BME280;57582;-34.876;138.628;2023-08-31T15:49:44;102013;;;15.43;62.99
70198;BME280;57582;-34.876;138.628;2023-08-31T15:52:44;102015;;;15.48;63.00
70198;BME280;57582;-34.876;138.628;2023-08-31T15:55:47;102018;;;15.52;62.62
70198;BME280;57582;-34.876;138.628;2023-08-31T15:58:44;102019;;;15.49;62.59
70198;BME280;57582;-34.876;138.628;2023-08-31T16:01:44;102017;;;15.51;62.63